sensor_id;sensor_type;location;lat;lon;timestamp;P1;durP1;ratioP1;P2;durP2;ratioP2
21239;SDS011;10778;48.962;9.018;2023-09-18T00:00:01;7.03;;;4.13;;
21239;SDS011;10778;48.962;9.018;2023-09-18T00:02:33;6.60;;;4.18;;
21239;SDS011;10778;48.962;9.018;2023-09-18T00:04:59;6.03;;;4.07;;
21239;SDS011;10778;48.962;9.018;2023-09-18T00:07:25;5.88;;;4.03;;
21239;SDS011;10778;48.962;9.018;2023-09-18T00:09:51;7.45;;;4.40;;
21239;SDS011;10778;48.962;9.018;2023-09-18T00:12:18;7.03;;;4.20;;
21239;SDS011;10778;48.962;9.018;2023-09-18T00:14:47;4.63;;;3.70;;
21239;SDS011;10778;48.962;9.018;2023-09-18T00:17:14;7.90;;;4.20;;
21239;SDS011;10778;48.962;9.018;2023-09-18T00:19:40;7.03;;;4.07;;
21239;SDS011;10778;48.962;9.018;2023-09-18T00:22:06;6.25;;;3.70;;
21239;SDS011;10778;48.962;9.018;2023-09-18T00:24:32;5.65;;;4.20;;
21239;SDS011;10778;48.962;9.018;2023-09-18T00:26:57;5.63;;;3.53;;
21239;SDS011;10778;48.962;9.018;2023-09-18T00:29:23;7.57;;;3.92;;
21239;SDS011;10778;48.962;9.018;2023-09-18T00:31:49;8.05;;;4.07;;
21239;SDS011;10778;48.962;9.018;2023-09-18T00:34:15;8.35;;;4.38;;
21239;SDS011;10778;48.962;9.018;2023-09-18T00:36:41;7.20;;;4.00;;
21239;SDS011;10778;48.962;9.018;2023-09-18T00:39:07;7.63;;;4.15;;
21239;SDS011;10778;48.962;9.018;2023-09-18T00:41:33;7.70;;;3.85;;
21239;SDS011;10778;48.962;9.018;2023-09-18T00:43:59;5.13;;;3.75;;
21239;SDS011;10778;48.962;9.018;2023-09-18T00:46:25;5.95;;;4.15;;
21239;SDS011;10778;48.962;9.018;2023-09-18T00:48:52;5.05;;;3.90;;
21239;SDS011;10778;48.962;9.018;2023-09-18T00:51:19;7.43;;;4.13;;
21239;SDS011;10778;48.962;9.018;2023-09-18T00:53:45;7.68;;;4.18;;
21239;SDS011;10778;48.962;9.018;2023-09-18T00:56:15;6.82;;;4.22;;
21239;SDS011;10778;48.962;9.018;2023-09-18T00:58:41;6.80;;;3.75;;
21239;SDS011;10778;48.962;9.018;2023-09-18T01:01:08;6.80;;;4.20;;
21239;SDS011;10778;48.962;9.018;2023-09-18T01:03:36;6.00;;;3.90;;
21239;SDS011;10778;48.962;9.018;2023-09-18T01:06:02;6.05;;;3.90;;
21239;SDS011;10778;48.962;9.018;2023-09-18T01:08:29;5.95;;;3.85;;
21239;SDS011;10778;48.962;9.018;2023-09-18T01:11:00;5.90;;;4.28;;
21239;SDS011;10778;48.962;9.018;2023-09-18T01:13:37;4.90;;;3.78;;
21239;SDS011;10778;48.962;9.018;2023-09-18T01:16:19;4.80;;;3.75;;
21239;SDS011;10778;48.962;9.018;2023-09-18T01:18:52;4.57;;;3.78;;
21239;SDS011;10778;48.962;9.018;2023-09-18T01:21:19;6.90;;;3.90;;
21239;SDS011;10778;48.962;9.018;2023-09-18T01:23:46;5.63;;;3.75;;
21239;SDS011;10778;48.962;9.018;2023-09-18T01:26:13;6.88;;;4.05;;
21239;SDS011;10778;48.962;9.018;2023-09-18T01:28:39;4.68;;;3.83;;
21239;SDS011;10778;48.962;9.018;2023-09-18T01:31:05;5.85;;;4.03;;
21239;SDS011;10778;48.962;9.018;2023-09-18T01:33:32;6.78;;;3.75;;
21239;SDS011;10778;48.962;9.018;2023-09-18T01:36:00;6.55;;;3.55;;
21239;SDS011;10778;48.962;9.018;2023-09-18T01:38:27;4.65;;;3.35;;
21239;SDS011;10778;48.962;9.018;2023-09-18T01:40:54;4.55;;;3.70;;
21239;SDS011;10778;48.962;9.018;2023-09-18T01:43:20;6.43;;;4.13;;
21239;SDS011;10778;48.962;9.018;2023-09-18T01:45:46;5.55;;;4.20;;
21239;SDS011;10778;48.962;9.018;2023-09-18T01:48:13;5.15;;;3.90;;
21239;SDS011;10778;48.962;9.018;2023-09-18T01:50:39;6.90;;;4.20;;
21239;SDS011;10778;48.962;9.018;2023-09-18T01:53:06;8.10;;;3.83;;
21239;SDS011;10778;48.962;9.018;2023-09-18T01:55:32;5.20;;;3.65;;
21239;SDS011;10778;48.962;9.018;2023-09-18T01:57:58;5.43;;;3.90;;
21239;SDS011;10778;48.962;9.018;2023-09-18T02:00:24;4.38;;;3.70;;
21239;SDS011;10778;48.962;9.018;2023-09-18T02:02:50;7.05;;;4.00;;
21239;SDS011;10778;48.962;9.018;2023-09-18T02:05:16;6.22;;;4.13;;
21239;SDS011;10778;48.962;9.018;2023-09-18T02:07:42;6.90;;;4.05;;
21239;SDS011;10778;48.962;9.018;2023-09-18T02:10:08;5.80;;;4.22;;
21239;SDS011;10778;48.962;9.018;2023-09-18T02:12:34;5.63;;;4.18;;
21239;SDS011;10778;48.962;9.018;2023-09-18T02:15:01;6.97;;;4.18;;
21239;SDS011;10778;48.962;9.018;2023-09-18T02:17:32;6.47;;;4.35;;
21239;SDS011;10778;48.962;9.018;2023-09-18T02:19:58;7.30;;;4.30;;
21239;SDS011;10778;48.962;9.018;2023-09-18T02:22:26;6.57;;;4.22;;
21239;SDS011;10778;48.962;9.018;2023-09-18T02:24:52;7.07;;;4.30;;
21239;SDS011;10778;48.962;9.018;2023-09-18T02:27:18;8.57;;;4.30;;
21239;SDS011;10778;48.962;9.018;2023-09-18T02:29:45;5.43;;;4.22;;
21239;SDS011;10778;48.962;9.018;2023-09-18T02:32:11;9.13;;;4.70;;
21239;SDS011;10778;48.962;9.018;2023-09-18T02:34:37;8.00;;;4.15;;
21239;SDS011;10778;48.962;9.018;2023-09-18T02:37:03;5.30;;;4.15;;
21239;SDS011;10778;48.962;9.018;2023-09-18T02:39:29;5.72;;;4.22;;
21239;SDS011;10778;48.962;9.018;2023-09-18T02:41:55;6.07;;;4.57;;
21239;SDS011;10778;48.962;9.018;2023-09-18T02:44:22;6.47;;;4.20;;
21239;SDS011;10778;48.962;9.018;2023-09-18T02:46:48;6.00;;;3.65;;
21239;SDS011;10778;48.962;9.018;2023-09-18T02:49:14;5.15;;;3.80;;
21239;SDS011;10778;48.962;9.018;2023-09-18T02:51:40;8.45;;;4.10;;
21239;SDS011;10778;48.962;9.018;2023-09-18T02:54:06;5.40;;;4.18;;
21239;SDS011;10778;48.962;9.018;2023-09-18T02:56:32;5.70;;;4.20;;
21239;SDS011;10778;48.962;9.018;2023-09-18T02:58:58;6.38;;;4.50;;
21239;SDS011;10778;48.962;9.018;2023-09-18T03:01:24;8.82;;;4.78;;
21239;SDS011;10778;48.962;9.018;2023-09-18T03:03:52;5.05;;;4.05;;
21239;SDS011;10778;48.962;9.018;2023-09-18T03:06:18;8.98;;;4.82;;
21239;SDS011;10778;48.962;9.018;2023-09-18T03:08:45;6.05;;;4.40;;
21239;SDS011;10778;48.962;9.018;2023-09-18T03:11:11;7.30;;;4.50;;
21239;SDS011;10778;48.962;9.018;2023-09-18T03:13:42;8.02;;;4.70;;
21239;SDS011;10778;48.962;9.018;2023-09-18T03:16:11;7.40;;;4.50;;
21239;SDS011;10778;48.962;9.018;2023-09-18T03:18:38;6.60;;;4.30;;
21239;SDS011;10778;48.962;9.018;2023-09-18T03:21:04;6.63;;;4.40;;
21239;SDS011;10778;48.962;9.018;2023-09-18T03:23:30;8.73;;;4.50;;
21239;SDS011;10778;48.962;9.018;2023-09-18T03:25:56;6.82;;;4.55;;
21239;SDS011;10778;48.962;9.018;2023-09-18T03:28:22;6.00;;;4.30;;
21239;SDS011;10778;48.962;9.018;2023-09-18T03:30:49;6.82;;;3.92;;
21239;SDS011;10778;48.962;9.018;2023-09-18T03:33:18;5.72;;;3.90;;
21239;SDS011;10778;48.962;9.018;2023-09-18T03:35:50;5.47;;;4.00;;
21239;SDS011;10778;48.962;9.018;2023-09-18T03:38:22;5.13;;;4.05;;
21239;SDS011;10778;48.962;9.018;2023-09-18T03:40:49;7.88;;;4.35;;
21239;SDS011;10778;48.962;9.018;2023-09-18T03:43:15;8.00;;;4.28;;
21239;SDS011;10778;48.962;9.018;2023-09-18T03:45:41;4.63;;;4.00;;
21239;SDS011;10778;48.962;9.018;2023-09-18T03:48:08;6.20;;;4.05;;
21239;SDS011;10778;48.962;9.018;2023-09-18T03:50:35;8.15;;;4.43;;
21239;SDS011;10778;48.962;9.018;2023-09-18T03:53:01;9.43;;;4.20;;
21239;SDS011;10778;48.962;9.018;2023-09-18T03:55:27;6.97;;;4.70;;
21239;SDS011;10778;48.962;9.018;2023-09-18T03:57:53;5.88;;;3.60;;
21239;SDS011;10778;48.962;9.018;2023-09-18T04:00:20;9.32;;;3.97;;
21239;SDS011;10778;48.962;9.018;2023-09-18T04:02:47;8.82;;;3.88;;
21239;SDS011;10778;48.962;9.018;2023-09-18T04:05:13;9.00;;;3.55;;
21239;SDS011;10778;48.962;9.018;2023-09-18T04:07:39;9.68;;;3.25;;
21239;SDS011;10778;48.962;9.018;2023-09-18T04:10:05;9.10;;;3.53;;
21239;SDS011;10778;48.962;9.018;2023-09-18T04:12:31;13.48;;;3.70;;
21239;SDS011;10778;48.962;9.018;2023-09-18T04:14:57;8.73;;;3.20;;
21239;SDS011;10778;48.962;9.018;2023-09-18T04:17:23;9.13;;;3.28;;
21239;SDS011;10778;48.962;9.018;2023-09-18T04:19:51;9.30;;;3.60;;
21239;SDS011;10778;48.962;9.018;2023-09-18T04:22:17;7.72;;;3.35;;
21239;SDS011;10778;48.962;9.018;2023-09-18T04:24:42;12.23;;;3.67;;
21239;SDS011;10778;48.962;9.018;2023-09-18T04:27:09;11.30;;;3.85;;
21239;SDS011;10778;48.962;9.018;2023-09-18T04:29:35;11.02;;;3.70;;
21239;SDS011;10778;48.962;9.018;2023-09-18T04:32:02;8.57;;;2.70;;
21239;SDS011;10778;48.962;9.018;2023-09-18T04:34:30;9.65;;;3.25;;
21239;SDS011;10778;48.962;9.018;2023-09-18T04:36:56;11.80;;;3.03;;
21239;SDS011;10778;48.962;9.018;2023-09-18T04:39:22;16.80;;;3.53;;
21239;SDS011;10778;48.962;9.018;2023-09-18T04:41:48;15.90;;;3.67;;
21239;SDS011;10778;48.962;9.018;2023-09-18T04:44:14;9.23;;;3.53;;
21239;SDS011;10778;48.962;9.018;2023-09-18T04:46:41;10.40;;;3.47;;
21239;SDS011;10778;48.962;9.018;2023-09-18T04:49:09;9.93;;;3.60;;
21239;SDS011;10778;48.962;9.018;2023-09-18T04:51:37;13.35;;;3.35;;
21239;SDS011;10778;48.962;9.018;2023-09-18T04:54:07;8.85;;;3.35;;
21239;SDS011;10778;48.962;9.018;2023-09-18T04:56:34;12.82;;;3.53;;
21239;SDS011;10778;48.962;9.018;2023-09-18T04:59:00;13.13;;;3.85;;
21239;SDS011;10778;48.962;9.018;2023-09-18T05:01:26;13.50;;;4.07;;
21239;SDS011;10778;48.962;9.018;2023-09-18T05:03:53;12.90;;;3.80;;
21239;SDS011;10778;48.962;9.018;2023-09-18T05:06:19;10.38;;;3.47;;
21239;SDS011;10778;48.962;9.018;2023-09-18T05:08:46;7.88;;;2.97;;
21239;SDS011;10778;48.962;9.018;2023-09-18T05:11:12;8.95;;;3.45;;
21239;SDS011;10778;48.962;9.018;2023-09-18T05:13:38;10.98;;;3.38;;
21239;SDS011;10778;48.962;9.018;2023-09-18T05:16:04;11.10;;;3.67;;
21239;SDS011;10778;48.962;9.018;2023-09-18T05:18:30;6.38;;;3.58;;
21239;SDS011;10778;48.962;9.018;2023-09-18T05:20:56;10.75;;;3.90;;
21239;SDS011;10778;48.962;9.018;2023-09-18T05:23:22;11.70;;;4.20;;
21239;SDS011;10778;48.962;9.018;2023-09-18T05:25:48;11.13;;;4.20;;
21239;SDS011;10778;48.962;9.018;2023-09-18T05:28:14;10.63;;;3.90;;
21239;SDS011;10778;48.962;9.018;2023-09-18T05:30:40;9.68;;;4.13;;
21239;SDS011;10778;48.962;9.018;2023-09-18T05:33:06;8.57;;;3.92;;
21239;SDS011;10778;48.962;9.018;2023-09-18T05:35:40;12.38;;;4.60;;
21239;SDS011;10778;48.962;9.018;2023-09-18T05:38:08;10.43;;;4.22;;
21239;SDS011;10778;48.962;9.018;2023-09-18T05:40:36;9.70;;;4.20;;
21239;SDS011;10778;48.962;9.018;2023-09-18T05:43:02;8.98;;;3.88;;
21239;SDS011;10778;48.962;9.018;2023-09-18T05:45:28;8.63;;;3.75;;
21239;SDS011;10778;48.962;9.018;2023-09-18T05:47:56;9.77;;;3.88;;
21239;SDS011;10778;48.962;9.018;2023-09-18T05:50:33;10.98;;;3.83;;
21239;SDS011;10778;48.962;9.018;2023-09-18T05:53:01;7.63;;;3.85;;
21239;SDS011;10778;48.962;9.018;2023-09-18T05:55:33;14.02;;;4.88;;
21239;SDS011;10778;48.962;9.018;2023-09-18T05:57:59;11.30;;;4.68;;
21239;SDS011;10778;48.962;9.018;2023-09-18T06:00:25;10.93;;;4.00;;
21239;SDS011;10778;48.962;9.018;2023-09-18T06:02:52;11.13;;;3.80;;
21239;SDS011;10778;48.962;9.018;2023-09-18T06:05:18;11.30;;;3.60;;
21239;SDS011;10778;48.962;9.018;2023-09-18T06:07:50;9.27;;;3.42;;
21239;SDS011;10778;48.962;9.018;2023-09-18T06:10:16;12.32;;;3.47;;
21239;SDS011;10778;48.962;9.018;2023-09-18T06:12:44;10.15;;;3.47;;
21239;SDS011;10778;48.962;9.018;2023-09-18T06:15:10;11.70;;;3.55;;
21239;SDS011;10778;48.962;9.018;2023-09-18T06:17:37;9.27;;;3.20;;
21239;SDS011;10778;48.962;9.018;2023-09-18T06:20:05;12.38;;;3.63;;
21239;SDS011;10778;48.962;9.018;2023-09-18T06:22:36;7.13;;;2.88;;
21239;SDS011;10778;48.962;9.018;2023-09-18T06:25:03;10.98;;;3.20;;
21239;SDS011;10778;48.962;9.018;2023-09-18T06:27:30;8.18;;;3.00;;
21239;SDS011;10778;48.962;9.018;2023-09-18T06:29:58;9.65;;;3.25;;
21239;SDS011;10778;48.962;9.018;2023-09-18T06:32:25;12.90;;;3.35;;
21239;SDS011;10778;48.962;9.018;2023-09-18T06:34:51;9.38;;;3.20;;
21239;SDS011;10778;48.962;9.018;2023-09-18T06:37:17;11.05;;;3.65;;
21239;SDS011;10778;48.962;9.018;2023-09-18T06:39:44;10.95;;;3.30;;
21239;SDS011;10778;48.962;9.018;2023-09-18T06:42:10;8.98;;;2.90;;
21239;SDS011;10778;48.962;9.018;2023-09-18T06:44:36;8.65;;;3.20;;
21239;SDS011;10778;48.962;9.018;2023-09-18T06:47:03;10.98;;;3.30;;
21239;SDS011;10778;48.962;9.018;2023-09-18T06:49:29;8.07;;;2.88;;
21239;SDS011;10778;48.962;9.018;2023-09-18T06:51:56;7.68;;;2.88;;
21239;SDS011;10778;48.962;9.018;2023-09-18T06:54:22;10.52;;;2.60;;
21239;SDS011;10778;48.962;9.018;2023-09-18T06:56:48;5.68;;;2.80;;
21239;SDS011;10778;48.962;9.018;2023-09-18T06:59:14;7.45;;;3.03;;
21239;SDS011;10778;48.962;9.018;2023-09-18T07:01:40;7.40;;;2.80;;
21239;SDS011;10778;48.962;9.018;2023-09-18T07:04:07;8.65;;;2.58;;
21239;SDS011;10778;48.962;9.018;2023-09-18T07:06:33;9.05;;;2.63;;
21239;SDS011;10778;48.962;9.018;2023-09-18T07:08:59;9.15;;;2.90;;
21239;SDS011;10778;48.962;9.018;2023-09-18T07:11:25;10.32;;;2.63;;
21239;SDS011;10778;48.962;9.018;2023-09-18T07:13:51;6.55;;;2.78;;
21239;SDS011;10778;48.962;9.018;2023-09-18T07:16:17;9.25;;;2.95;;
21239;SDS011;10778;48.962;9.018;2023-09-18T07:18:43;8.82;;;2.63;;
21239;SDS011;10778;48.962;9.018;2023-09-18T07:21:09;6.85;;;2.50;;
21239;SDS011;10778;48.962;9.018;2023-09-18T07:23:35;5.72;;;2.38;;
21239;SDS011;10778;48.962;9.018;2023-09-18T07:26:02;6.63;;;2.67;;
21239;SDS011;10778;48.962;9.018;2023-09-18T07:28:29;7.60;;;2.75;;
21239;SDS011;10778;48.962;9.018;2023-09-18T07:30:55;6.85;;;2.95;;
21239;SDS011;10778;48.962;9.018;2023-09-18T07:33:20;5.97;;;2.45;;
21239;SDS011;10778;48.962;9.018;2023-09-18T07:35:47;5.38;;;2.63;;
21239;SDS011;10778;48.962;9.018;2023-09-18T07:38:13;8.88;;;2.72;;
21239;SDS011;10778;48.962;9.018;2023-09-18T07:40:40;11.80;;;2.80;;
21239;SDS011;10778;48.962;9.018;2023-09-18T07:43:06;7.47;;;2.92;;
21239;SDS011;10778;48.962;9.018;2023-09-18T07:45:33;9.23;;;2.97;;
21239;SDS011;10778;48.962;9.018;2023-09-18T07:47:59;7.82;;;2.47;;
21239;SDS011;10778;48.962;9.018;2023-09-18T07:50:25;10.60;;;3.30;;
21239;SDS011;10778;48.962;9.018;2023-09-18T07:52:52;7.68;;;2.60;;
21239;SDS011;10778;48.962;9.018;2023-09-18T07:55:18;8.32;;;3.17;;
21239;SDS011;10778;48.962;9.018;2023-09-18T07:57:44;9.90;;;2.95;;
21239;SDS011;10778;48.962;9.018;2023-09-18T08:00:11;8.73;;;2.80;;
21239;SDS011;10778;48.962;9.018;2023-09-18T08:02:39;6.57;;;2.20;;
21239;SDS011;10778;48.962;9.018;2023-09-18T08:05:05;5.80;;;2.50;;
21239;SDS011;10778;48.962;9.018;2023-09-18T08:07:34;6.55;;;2.10;;
21239;SDS011;10778;48.962;9.018;2023-09-18T08:10:02;5.25;;;2.30;;
21239;SDS011;10778;48.962;9.018;2023-09-18T08:12:32;6.72;;;2.05;;
21239;SDS011;10778;48.962;9.018;2023-09-18T08:14:58;9.77;;;2.30;;
21239;SDS011;10778;48.962;9.018;2023-09-18T08:17:24;5.47;;;1.70;;
21239;SDS011;10778;48.962;9.018;2023-09-18T08:19:52;4.93;;;1.83;;
21239;SDS011;10778;48.962;9.018;2023-09-18T08:22:19;6.05;;;2.20;;
21239;SDS011;10778;48.962;9.018;2023-09-18T08:24:47;6.93;;;2.10;;
21239;SDS011;10778;48.962;9.018;2023-09-18T08:27:14;6.40;;;2.10;;
21239;SDS011;10778;48.962;9.018;2023-09-18T08:29:43;6.60;;;2.20;;
21239;SDS011;10778;48.962;9.018;2023-09-18T08:32:10;6.68;;;2.05;;
21239;SDS011;10778;48.962;9.018;2023-09-18T08:34:37;6.28;;;2.28;;
21239;SDS011;10778;48.962;9.018;2023-09-18T08:37:03;7.18;;;2.15;;
21239;SDS011;10778;48.962;9.018;2023-09-18T08:39:29;6.78;;;1.95;;
21239;SDS011;10778;48.962;9.018;2023-09-18T08:41:58;7.53;;;2.40;;
21239;SDS011;10778;48.962;9.018;2023-09-18T08:44:28;7.72;;;2.30;;
21239;SDS011;10778;48.962;9.018;2023-09-18T08:46:54;6.53;;;2.35;;
21239;SDS011;10778;48.962;9.018;2023-09-18T08:49:25;9.07;;;2.50;;
21239;SDS011;10778;48.962;9.018;2023-09-18T08:51:53;10.13;;;2.40;;
21239;SDS011;10778;48.962;9.018;2023-09-18T08:54:21;8.07;;;2.45;;
21239;SDS011;10778;48.962;9.018;2023-09-18T08:56:50;6.65;;;2.40;;
21239;SDS011;10778;48.962;9.018;2023-09-18T08:59:17;6.95;;;2.40;;
21239;SDS011;10778;48.962;9.018;2023-09-18T09:01:47;10.85;;;3.03;;
21239;SDS011;10778;48.962;9.018;2023-09-18T09:04:13;9.40;;;3.42;;
21239;SDS011;10778;48.962;9.018;2023-09-18T09:06:39;7.55;;;2.63;;
21239;SDS011;10778;48.962;9.018;2023-09-18T09:09:05;11.93;;;2.78;;
21239;SDS011;10778;48.962;9.018;2023-09-18T09:11:31;6.38;;;2.10;;
21239;SDS011;10778;48.962;9.018;2023-09-18T09:16:51;4.25;;;1.60;;
21239;SDS011;10778;48.962;9.018;2023-09-18T09:19:38;4.82;;;1.60;;
21239;SDS011;10778;48.962;9.018;2023-09-18T09:22:04;5.90;;;1.50;;
21239;SDS011;10778;48.962;9.018;2023-09-18T09:24:38;4.88;;;1.33;;
21239;SDS011;10778;48.962;9.018;2023-09-18T09:27:08;4.13;;;1.50;;
21239;SDS011;10778;48.962;9.018;2023-09-18T09:29:36;2.90;;;1.30;;
21239;SDS011;10778;48.962;9.018;2023-09-18T09:32:13;5.30;;;1.50;;
21239;SDS011;10778;48.962;9.018;2023-09-18T09:34:41;6.28;;;1.58;;
21239;SDS011;10778;48.962;9.018;2023-09-18T09:37:07;4.72;;;1.38;;
21239;SDS011;10778;48.962;9.018;2023-09-18T09:39:33;3.53;;;1.35;;
21239;SDS011;10778;48.962;9.018;2023-09-18T09:42:00;3.85;;;1.40;;
21239;SDS011;10778;48.962;9.018;2023-09-18T09:44:32;3.25;;;1.33;;
21239;SDS011;10778;48.962;9.018;2023-09-18T09:46:59;3.53;;;1.20;;
21239;SDS011;10778;48.962;9.018;2023-09-18T09:49:25;5.25;;;1.30;;
21239;SDS011;10778;48.962;9.018;2023-09-18T09:51:54;2.63;;;1.30;;
21239;SDS011;10778;48.962;9.018;2023-09-18T09:54:38;4.22;;;1.25;;
21239;SDS011;10778;48.962;9.018;2023-09-18T09:57:06;5.35;;;1.50;;
21239;SDS011;10778;48.962;9.018;2023-09-18T09:59:32;3.38;;;1.35;;
21239;SDS011;10778;48.962;9.018;2023-09-18T10:02:01;5.28;;;1.70;;
21239;SDS011;10778;48.962;9.018;2023-09-18T10:04:28;3.65;;;1.30;;
21239;SDS011;10778;48.962;9.018;2023-09-18T10:07:05;3.33;;;1.42;;
21239;SDS011;10778;48.962;9.018;2023-09-18T10:09:34;4.80;;;1.70;;
21239;SDS011;10778;48.962;9.018;2023-09-18T10:12:01;4.50;;;1.50;;
21239;SDS011;10778;48.962;9.018;2023-09-18T10:14:35;3.90;;;1.40;;
21239;SDS011;10778;48.962;9.018;2023-09-18T10:17:15;5.20;;;1.73;;
21239;SDS011;10778;48.962;9.018;2023-09-18T10:19:51;3.92;;;1.42;;
21239;SDS011;10778;48.962;9.018;2023-09-18T10:24:50;4.97;;;1.70;;
21239;SDS011;10778;48.962;9.018;2023-09-18T10:27:20;4.85;;;1.77;;
21239;SDS011;10778;48.962;9.018;2023-09-18T10:29:48;5.07;;;1.92;;
21239;SDS011;10778;48.962;9.018;2023-09-18T10:32:19;4.65;;;1.75;;
21239;SDS011;10778;48.962;9.018;2023-09-18T10:34:48;4.80;;;1.80;;
21239;SDS011;10778;48.962;9.018;2023-09-18T10:37:15;6.50;;;2.17;;
21239;SDS011;10778;48.962;9.018;2023-09-18T10:39:41;5.03;;;1.88;;
21239;SDS011;10778;48.962;9.018;2023-09-18T10:42:10;6.50;;;1.90;;
21239;SDS011;10778;48.962;9.018;2023-09-18T10:44:37;6.53;;;1.90;;
21239;SDS011;10778;48.962;9.018;2023-09-18T10:47:08;3.78;;;1.80;;
21239;SDS011;10778;48.962;9.018;2023-09-18T10:49:35;4.43;;;1.67;;
21239;SDS011;10778;48.962;9.018;2023-09-18T10:52:02;4.32;;;1.75;;
21239;SDS011;10778;48.962;9.018;2023-09-18T10:54:29;6.45;;;1.67;;
21239;SDS011;10778;48.962;9.018;2023-09-18T10:56:56;3.47;;;1.75;;
21239;SDS011;10778;48.962;9.018;2023-09-18T10:59:23;4.45;;;1.75;;
21239;SDS011;10778;48.962;9.018;2023-09-18T11:01:49;5.88;;;1.80;;
21239;SDS011;10778;48.962;9.018;2023-09-18T11:04:19;4.32;;;1.70;;
21239;SDS011;10778;48.962;9.018;2023-09-18T11:09:22;4.80;;;1.60;;
21239;SDS011;10778;48.962;9.018;2023-09-18T11:14:45;3.35;;;1.38;;
21239;SDS011;10778;48.962;9.018;2023-09-18T11:17:36;5.63;;;1.75;;
21239;SDS011;10778;48.962;9.018;2023-09-18T11:20:17;6.00;;;1.85;;
21239;SDS011;10778;48.962;9.018;2023-09-18T11:22:57;3.38;;;1.50;;
21239;SDS011;10778;48.962;9.018;2023-09-18T11:25:34;6.70;;;1.70;;
21239;SDS011;10778;48.962;9.018;2023-09-18T11:28:04;4.00;;;1.60;;
21239;SDS011;10778;48.962;9.018;2023-09-18T11:30:35;6.75;;;1.90;;
21239;SDS011;10778;48.962;9.018;2023-09-18T11:33:03;5.95;;;1.70;;
21239;SDS011;10778;48.962;9.018;2023-09-18T11:35:30;4.38;;;1.75;;
21239;SDS011;10778;48.962;9.018;2023-09-18T11:38:10;5.82;;;2.00;;
21239;SDS011;10778;48.962;9.018;2023-09-18T11:40:37;4.85;;;1.98;;
21239;SDS011;10778;48.962;9.018;2023-09-18T11:45:42;5.90;;;1.55;;
21239;SDS011;10778;48.962;9.018;2023-09-18T11:48:09;3.75;;;1.70;;
21239;SDS011;10778;48.962;9.018;2023-09-18T11:50:36;3.88;;;1.42;;
21239;SDS011;10778;48.962;9.018;2023-09-18T11:53:02;5.53;;;1.42;;
21239;SDS011;10778;48.962;9.018;2023-09-18T11:55:28;3.30;;;1.42;;
21239;SDS011;10778;48.962;9.018;2023-09-18T11:57:55;4.40;;;1.40;;
21239;SDS011;10778;48.962;9.018;2023-09-18T12:00:24;4.60;;;1.20;;
21239;SDS011;10778;48.962;9.018;2023-09-18T12:02:53;3.45;;;1.23;;
21239;SDS011;10778;48.962;9.018;2023-09-18T12:05:21;6.20;;;1.70;;
21239;SDS011;10778;48.962;9.018;2023-09-18T12:07:51;4.40;;;1.40;;
21239;SDS011;10778;48.962;9.018;2023-09-18T12:10:18;3.47;;;1.23;;
21239;SDS011;10778;48.962;9.018;2023-09-18T12:12:46;5.03;;;1.30;;
21239;SDS011;10778;48.962;9.018;2023-09-18T12:15:13;5.28;;;1.60;;
21239;SDS011;10778;48.962;9.018;2023-09-18T12:17:40;4.40;;;1.40;;
21239;SDS011;10778;48.962;9.018;2023-09-18T12:20:07;5.90;;;1.58;;
21239;SDS011;10778;48.962;9.018;2023-09-18T12:22:40;5.97;;;1.35;;
21239;SDS011;10778;48.962;9.018;2023-09-18T12:27:36;3.78;;;1.23;;
21239;SDS011;10778;48.962;9.018;2023-09-18T12:30:03;5.53;;;1.60;;
21239;SDS011;10778;48.962;9.018;2023-09-18T12:32:31;4.03;;;1.40;;
21239;SDS011;10778;48.962;9.018;2023-09-18T12:34:58;4.32;;;1.50;;
21239;SDS011;10778;48.962;9.018;2023-09-18T12:37:24;3.92;;;1.10;;
21239;SDS011;10778;48.962;9.018;2023-09-18T12:39:50;5.05;;;1.75;;
21239;SDS011;10778;48.962;9.018;2023-09-18T12:42:18;3.58;;;1.60;;
21239;SDS011;10778;48.962;9.018;2023-09-18T12:44:47;3.70;;;1.40;;
21239;SDS011;10778;48.962;9.018;2023-09-18T12:47:14;7.32;;;1.40;;
21239;SDS011;10778;48.962;9.018;2023-09-18T12:49:41;3.92;;;1.20;;
21239;SDS011;10778;48.962;9.018;2023-09-18T12:52:06;3.17;;;1.38;;
21239;SDS011;10778;48.962;9.018;2023-09-18T12:54:43;3.33;;;1.45;;
21239;SDS011;10778;48.962;9.018;2023-09-18T12:57:19;3.50;;;1.25;;
21239;SDS011;10778;48.962;9.018;2023-09-18T12:59:46;4.93;;;1.35;;
21239;SDS011;10778;48.962;9.018;2023-09-18T13:02:15;2.70;;;1.50;;
21239;SDS011;10778;48.962;9.018;2023-09-18T13:04:50;4.07;;;1.20;;
21239;SDS011;10778;48.962;9.018;2023-09-18T13:07:24;2.75;;;1.30;;
21239;SDS011;10778;48.962;9.018;2023-09-18T13:10:05;4.78;;;1.40;;
21239;SDS011;10778;48.962;9.018;2023-09-18T13:13:12;3.17;;;1.15;;
21239;SDS011;10778;48.962;9.018;2023-09-18T13:15:30;2.53;;;1.23;;
21239;SDS011;10778;48.962;9.018;2023-09-18T13:17:58;3.03;;;1.38;;
21239;SDS011;10778;48.962;9.018;2023-09-18T13:20:27;3.47;;;1.20;;
21239;SDS011;10778;48.962;9.018;2023-09-18T13:22:55;3.05;;;1.33;;
21239;SDS011;10778;48.962;9.018;2023-09-18T13:25:23;2.97;;;1.17;;
21239;SDS011;10778;48.962;9.018;2023-09-18T13:27:51;3.08;;;1.27;;
21239;SDS011;10778;48.962;9.018;2023-09-18T13:30:18;3.30;;;1.23;;
21239;SDS011;10778;48.962;9.018;2023-09-18T13:32:46;3.78;;;1.20;;
21239;SDS011;10778;48.962;9.018;2023-09-18T13:35:14;2.80;;;1.17;;
21239;SDS011;10778;48.962;9.018;2023-09-18T13:37:41;3.45;;;1.10;;
21239;SDS011;10778;48.962;9.018;2023-09-18T13:40:08;4.30;;;1.42;;
21239;SDS011;10778;48.962;9.018;2023-09-18T13:42:35;3.53;;;1.20;;
21239;SDS011;10778;48.962;9.018;2023-09-18T13:45:02;2.00;;;1.05;;
21239;SDS011;10778;48.962;9.018;2023-09-18T13:47:34;3.03;;;1.02;;
21239;SDS011;10778;48.962;9.018;2023-09-18T13:50:01;3.53;;;1.30;;
21239;SDS011;10778;48.962;9.018;2023-09-18T13:52:28;4.53;;;1.15;;
21239;SDS011;10778;48.962;9.018;2023-09-18T13:54:56;3.38;;;1.50;;
21239;SDS011;10778;48.962;9.018;2023-09-18T13:57:22;2.15;;;1.20;;
21239;SDS011;10778;48.962;9.018;2023-09-18T13:59:49;2.90;;;1.20;;
21239;SDS011;10778;48.962;9.018;2023-09-18T14:02:17;3.25;;;1.40;;
21239;SDS011;10778;48.962;9.018;2023-09-18T14:04:44;4.00;;;1.20;;
21239;SDS011;10778;48.962;9.018;2023-09-18T14:07:11;4.35;;;1.23;;
21239;SDS011;10778;48.962;9.018;2023-09-18T14:09:38;3.80;;;1.33;;
21239;SDS011;10778;48.962;9.018;2023-09-18T14:12:04;4.10;;;1.38;;
21239;SDS011;10778;48.962;9.018;2023-09-18T14:14:34;4.07;;;1.30;;
21239;SDS011;10778;48.962;9.018;2023-09-18T14:17:01;5.28;;;1.50;;
21239;SDS011;10778;48.962;9.018;2023-09-18T14:19:29;3.22;;;1.23;;
21239;SDS011;10778;48.962;9.018;2023-09-18T14:21:55;3.58;;;1.40;;
21239;SDS011;10778;48.962;9.018;2023-09-18T14:24:21;3.60;;;1.10;;
21239;SDS011;10778;48.962;9.018;2023-09-18T14:26:51;3.10;;;1.20;;
21239;SDS011;10778;48.962;9.018;2023-09-18T14:29:18;2.83;;;1.40;;
21239;SDS011;10778;48.962;9.018;2023-09-18T14:31:44;3.40;;;1.40;;
21239;SDS011;10778;48.962;9.018;2023-09-18T14:34:10;4.20;;;1.30;;
21239;SDS011;10778;48.962;9.018;2023-09-18T14:36:36;3.50;;;1.42;;
21239;SDS011;10778;48.962;9.018;2023-09-18T14:39:04;2.20;;;1.30;;
21239;SDS011;10778;48.962;9.018;2023-09-18T14:41:34;3.97;;;1.27;;
21239;SDS011;10778;48.962;9.018;2023-09-18T14:44:03;5.10;;;1.20;;
21239;SDS011;10778;48.962;9.018;2023-09-18T14:46:31;3.45;;;1.27;;
21239;SDS011;10778;48.962;9.018;2023-09-18T14:49:00;2.47;;;1.15;;
21239;SDS011;10778;48.962;9.018;2023-09-18T14:51:27;2.65;;;1.15;;
21239;SDS011;10778;48.962;9.018;2023-09-18T14:53:57;4.07;;;1.45;;
21239;SDS011;10778;48.962;9.018;2023-09-18T14:56:23;1.95;;;0.93;;
21239;SDS011;10778;48.962;9.018;2023-09-18T14:58:49;3.42;;;1.27;;
21239;SDS011;10778;48.962;9.018;2023-09-18T15:01:17;3.80;;;1.30;;
21239;SDS011;10778;48.962;9.018;2023-09-18T15:03:44;3.80;;;1.20;;